If you wish to contribute or participate in the discussions about articles you are invited to join SKYbrary as a registered user

 Actions

Kamishly Airport

From SKYbrary Wiki

OSKL
Airport
ICAO: OSKL – IATA: KAC
Summary
Name Kamishly Airport
Region Middle East
Territory Syria SY.gif
Location Qamishli, Al Hasakah
Serving Qamishli
Elevation 451.104 m
1,480 ft
1,480 ft451.104 m
Coordinates 37° 1' 14.25" N, 41° 11' 29.02" E
Runways
Designator Length Width Surface ROPS
3/21 3615 m11,860.236 ft
46 m150.919 ft
ASP /


METAR
Observation OSKL 231300Z 36006KT 9999 SCT026 18/05 Q1020
Station Kamishli
Date/Time 23 April 2019 13:00:00
Wind direction 360°
Wind speed 06 kts
Lowest cloud amount scattered clouds
Temperature 18°C
Dew point 5°C
Humidity 42%
QNH 1020 hPa
Weather condition n/a

Description

Kamishly Airport is an airport serving Qamishli (also known as Kamishli or Qamishli), a city in northeastern Syria.

Maps

Terrain

Loading map...

Airport Layout

Loading map...


Accidents & Serious Incidents at or in vicinity of OSKL

None on SKYbrary